Time;durP1;ratioP1;P1;durP2;ratioP2;P2;SDS_P1;SDS_P2;PMS_P1;PMS_P2;Temp;Humidity;BMP_temperature;BMP_pressure;BME280_temperature;BME280_humidity;BME280_pressure;Samples;Min_cycle;Max_cycle;Signal;HPM_P1;HPM_P2
2024/02/07 00:02:23;;;;;;;13.40;5.60;;;;;;;13.62;83.51;99616.40;106704;1288;58427;-62
2024/02/07 00:04:48;;;;;;;12.50;5.80;;;;;;;13.62;83.49;99614.95;106485;1286;58324;-61
2024/02/07 00:07:14;;;;;;;13.00;5.40;;;;;;;13.62;83.49;99608.39;106655;1286;58189;-61
2024/02/07 00:09:40;;;;;;;10.70;5.60;;;;;;;13.62;83.46;99604.06;106688;1286;58236;-61
2024/02/07 00:12:06;;;;;;;12.20;5.70;;;;;;;13.62;83.47;99607.31;106418;1288;74344;-62
2024/02/07 00:14:31;;;;;;;11.80;5.20;;;;;;;13.62;83.58;99609.56;106650;1286;58301;-61
2024/02/07 00:16:57;;;;;;;14.20;5.60;;;;;;;13.63;83.56;99607.95;106637;1286;58212;-62
2024/02/07 00:19:23;;;;;;;11.60;5.60;;;;;;;13.62;83.57;99607.30;106632;1290;58254;-62
2024/02/07 00:21:49;;;;;;;13.40;5.80;;;;;;;13.62;83.56;99602.37;106565;1286;58700;-62
2024/02/07 00:24:14;;;;;;;10.10;4.90;;;;;;;13.62;83.53;99601.67;106662;1286;73124;-61
2024/02/07 00:26:40;;;;;;;14.30;6.20;;;;;;;13.63;83.68;99602.46;106656;1286;58192;-62
2024/02/07 00:29:05;;;;;;;11.10;4.90;;;;;;;13.62;83.61;99599.50;106712;1286;58304;-61
2024/02/07 00:31:31;;;;;;;11.30;5.00;;;;;;;13.62;83.57;99594.31;106629;1286;58379;-61
2024/02/07 00:33:56;;;;;;;9.60;4.50;;;;;;;13.63;83.54;99597.59;106668;1286;58392;-62
2024/02/07 00:36:22;;;;;;;12.10;5.50;;;;;;;13.63;83.66;99594.17;106616;1290;59051;-61
2024/02/07 00:38:47;;;;;;;12.10;5.40;;;;;;;13.63;83.50;99593.42;106411;1286;58345;-62
2024/02/07 00:41:20;;;;;;;10.50;5.00;;;;;;;13.63;83.46;99593.73;106656;1286;58341;-61
2024/02/07 00:43:46;;;;;;;;;;;;;;;13.63;83.49;99594.60;106676;1286;73408;-61
2024/02/07 00:46:11;;;;;;;11.70;4.80;;;;;;;13.63;83.44;99594.91;106460;1286;58408;-61
2024/02/07 00:48:39;;;;;;;10.00;5.10;;;;;;;13.63;83.51;99588.64;106649;1286;58347;-61
2024/02/07 00:51:04;;;;;;;12.10;5.00;;;;;;;13.63;83.57;99590.65;106687;1286;58662;-62
2024/02/07 00:53:30;;;;;;;10.10;4.40;;;;;;;13.63;83.50;99591.26;106680;1286;58382;-61
2024/02/07 00:55:55;;;;;;;16.10;4.90;;;;;;;13.63;83.52;99583.67;106669;1286;58469;-62
2024/02/07 00:58:22;;;;;;;10.40;4.70;;;;;;;13.63;83.41;99576.31;106649;1286;58325;-61
2024/02/07 01:00:48;;;;;;;8.80;4.30;;;;;;;13.63;83.48;99574.73;106684;1286;60062;-62
2024/02/07 01:03:13;;;;;;;10.00;4.80;;;;;;;13.63;83.50;99569.32;106660;1286;58505;-62
2024/02/07 01:05:39;;;;;;;9.70;4.40;;;;;;;13.63;83.44;99571.79;106678;1286;58295;-62
2024/02/07 01:08:05;;;;;;;11.20;4.90;;;;;;;13.64;83.41;99577.30;106410;1286;58315;-62
2024/02/07 01:10:30;;;;;;;9.30;4.50;;;;;;;13.64;83.38;99578.45;106646;1286;58189;-61
2024/02/07 01:12:55;;;;;;;9.10;4.40;;;;;;;13.64;83.42;99579.30;106725;1286;58647;-61
2024/02/07 01:15:21;;;;;;;12.30;4.90;;;;;;;13.64;83.39;99572.21;106675;1286;58289;-62
2024/02/07 01:17:46;;;;;;;10.50;4.90;;;;;;;13.64;83.36;99566.47;106385;1286;58298;-62
2024/02/07 01:20:12;;;;;;;10.20;4.70;;;;;;;13.64;83.42;99566.48;106646;1286;58354;-61
2024/02/07 01:22:37;;;;;;;8.50;4.40;;;;;;;13.65;83.36;99561.88;106401;1286;58325;-61
2024/02/07 01:25:05;;;;;;;10.70;4.70;;;;;;;13.65;83.26;99552.61;106711;1286;74794;-61
2024/02/07 01:27:31;;;;;;;10.80;4.30;;;;;;;13.65;83.34;99548.44;106639;1286;73503;-62
2024/02/07 01:29:57;;;;;;;9.80;4.30;;;;;;;13.66;83.30;99540.95;106619;1286;58273;-62
2024/02/07 01:32:23;;;;;;;9.70;4.40;;;;;;;13.66;83.33;99539.16;106705;1286;59009;-62
2024/02/07 01:34:48;;;;;;;9.90;4.40;;;;;;;13.66;83.27;99538.18;106670;1286;58215;-62
2024/02/07 01:37:14;;;;;;;8.70;4.00;;;;;;;13.66;83.23;99534.30;106672;1286;58287;-61
2024/02/07 01:39:40;;;;;;;10.30;4.40;;;;;;;13.66;83.17;99527.04;106629;1286;58241;-62
2024/02/07 01:42:06;;;;;;;8.70;4.40;;;;;;;13.65;83.24;99521.84;106756;1286;58198;-61
2024/02/07 01:44:31;;;;;;;10.30;4.60;;;;;;;13.65;83.25;99521.36;106642;1286;73694;-62
2024/02/07 01:47:13;;;;;;;9.50;4.20;;;;;;;13.66;83.18;99524.48;106653;1286;58911;-61
2024/02/07 01:49:50;;;;;;;8.00;3.70;;;;;;;13.65;83.21;99525.85;106612;1287;71655;-62
2024/02/07 01:52:24;;;;;;;11.30;4.20;;;;;;;13.66;83.20;99525.09;106662;1286;62826;-62
2024/02/07 01:54:50;;;;;;;9.60;4.40;;;;;;;13.66;83.16;99528.51;106673;1286;60228;-62
2024/02/07 01:57:16;;;;;;;8.90;4.30;;;;;;;13.66;83.11;99530.29;106633;1286;58343;-62
2024/02/07 01:59:42;;;;;;;7.90;3.70;;;;;;;13.66;83.16;99529.61;106671;1286;58657;-62
2024/02/07 02:02:08;;;;;;;9.40;4.20;;;;;;;13.67;83.03;99536.27;106654;1286;58272;-61
2024/02/07 02:04:33;;;;;;;10.90;4.40;;;;;;;13.67;83.03;99534.42;106686;1286;58219;-62
2024/02/07 02:07:00;;;;;;;8.80;4.10;;;;;;;13.67;82.97;99535.13;106759;1286;58321;-61
2024/02/07 02:09:27;;;;;;;7.60;3.80;;;;;;;13.67;83.03;99530.64;106397;1286;73444;-61
2024/02/07 02:11:56;;;;;;;8.20;3.70;;;;;;;13.67;83.03;99532.73;106691;1286;73293;-62
2024/02/07 02:14:22;;;;;;;9.40;4.10;;;;;;;13.66;83.03;99529.45;106646;1286;62798;-61
2024/02/07 02:16:48;;;;;;;8.10;3.90;;;;;;;13.67;83.01;99528.47;106660;1286;58294;-62
2024/02/07 02:19:17;;;;;;;9.30;3.80;;;;;;;13.67;83.02;99531.34;106661;1286;58181;-61
2024/02/07 02:22:07;;;;;;;8.70;3.90;;;;;;;13.67;83.01;99533.66;106703;1286;74467;-61
2024/02/07 02:24:33;;;;;;;7.70;4.00;;;;;;;13.67;83.02;99534.20;106650;1286;73466;-62
2024/02/07 02:27:21;;;;;;;10.60;3.90;;;;;;;13.67;82.99;99535.51;106698;1286;58179;-61
2024/02/07 02:29:53;;;;;;;9.60;4.00;;;;;;;13.66;82.88;99536.17;106192;1292;60165;-61
2024/02/07 02:32:21;;;;;;;7.80;3.60;;;;;;;13.67;82.91;99536.82;105956;1292;73883;-62
2024/02/07 02:34:51;;;;;;;7.10;3.70;;;;;;;13.66;82.95;99533.31;106164;1292;74628;-62
2024/02/07 02:37:18;;;;;;;7.00;3.40;;;;;;;13.66;82.89;99531.84;105844;1296;72872;-61
2024/02/07 02:39:43;;;;;;;7.60;3.70;;;;;;;13.67;82.93;99533.73;105812;1296;62845;-61
2024/02/07 02:42:09;;;;;;;8.50;4.10;;;;;;;13.67;82.88;99534.11;105856;1296;58257;-60
2024/02/07 02:44:34;;;;;;;7.90;3.80;;;;;;;13.67;82.82;99537.77;105850;1296;58517;-61
2024/02/07 02:47:02;;;;;;;8.70;3.90;;;;;;;13.67;82.83;99538.46;105835;1296;58446;-61
2024/02/07 02:49:28;;;;;;;9.30;3.80;;;;;;;13.67;82.78;99534.52;105835;1295;58321;-62
2024/02/07 02:51:55;;;;;;;6.90;3.70;;;;;;;13.66;82.75;99533.95;105824;1296;58791;-62
2024/02/07 02:54:21;;;;;;;6.90;3.40;;;;;;;13.67;82.73;99532.41;105851;1296;58330;-62
2024/02/07 02:56:46;;;;;;;7.50;3.70;;;;;;;13.67;82.78;99531.94;105877;1296;58666;-62
2024/02/07 02:59:14;;;;;;;7.30;3.90;;;;;;;13.66;82.82;99532.08;105863;1296;58340;-61
2024/02/07 03:01:39;;;;;;;7.20;3.50;;;;;;;13.66;82.81;99524.88;105868;1295;58618;-62
2024/02/07 03:04:06;;;;;;;7.40;3.70;;;;;;;13.66;82.88;99523.63;105847;1298;58606;-62
2024/02/07 03:06:50;;;;;;;8.20;3.60;;;;;;;13.66;82.83;99522.95;105786;1292;58336;-62
2024/02/07 03:09:21;;;;;;;8.90;4.20;;;;;;;13.66;82.75;99525.48;106591;1286;74753;-62
2024/02/07 03:11:48;;;;;;;9.90;4.30;;;;;;;13.65;82.72;99522.45;106715;1287;73352;-60
2024/02/07 03:14:14;;;;;;;10.30;3.80;;;;;;;13.65;82.74;99517.51;106649;1286;73503;-62
2024/02/07 03:16:39;;;;;;;9.40;3.90;;;;;;;13.65;82.78;99516.65;106398;1286;58346;-61
2024/02/07 03:19:05;;;;;;;7.60;3.80;;;;;;;13.65;82.76;99510.38;106708;1286;58413;-61
2024/02/07 03:21:30;;;;;;;8.10;3.90;;;;;;;13.65;82.73;99511.84;106689;1286;58234;-62
2024/02/07 03:23:56;;;;;;;6.90;3.40;;;;;;;13.64;82.74;99512.05;106704;1286;58297;-62
2024/02/07 03:26:22;;;;;;;6.40;3.40;;;;;;;13.64;82.69;99511.89;106474;1286;62913;-61
2024/02/07 03:28:49;;;;;;;8.70;3.70;;;;;;;13.64;82.73;99507.40;106692;1286;58253;-62
2024/02/07 03:31:15;;;;;;;6.30;3.10;;;;;;;13.64;82.79;99511.09;106630;1286;74740;-62
2024/02/07 03:33:43;;;;;;;7.50;3.70;;;;;;;13.64;82.72;99513.09;106666;1285;58115;-62
2024/02/07 03:36:09;;;;;;;7.00;3.70;;;;;;;13.63;82.74;99514.94;106620;1286;73479;-62
2024/02/07 03:38:34;;;;;;;7.50;3.70;;;;;;;13.63;82.76;99514.77;106623;1286;58202;-61
2024/02/07 03:41:00;;;;;;;7.70;3.70;;;;;;;13.63;82.72;99514.30;106692;1286;58271;-61
2024/02/07 03:43:27;;;;;;;7.80;3.60;;;;;;;13.64;82.72;99505.73;106674;1286;58254;-61
2024/02/07 03:45:52;;;;;;;8.50;3.50;;;;;;;13.63;82.65;99500.06;106671;1286;58721;-62
2024/02/07 03:48:18;;;;;;;8.00;3.40;;;;;;;13.63;82.71;99504.63;106666;1286;58283;-61
2024/02/07 03:50:48;;;;;;;6.30;3.60;;;;;;;13.63;82.71;99503.77;106702;1286;58128;-62
2024/02/07 03:53:14;;;;;;;7.30;4.00;;;;;;;13.63;82.68;99501.44;106662;1286;73880;-61
2024/02/07 03:55:39;;;;;;;8.20;3.60;;;;;;;13.62;82.73;99499.11;106680;1286;58326;-62
2024/02/07 03:58:05;;;;;;;7.70;3.60;;;;;;;13.63;82.62;99498.89;106618;1286;58328;-62
2024/02/07 04:00:30;;;;;;;6.90;3.70;;;;;;;13.62;82.65;99497.55;106679;1286;58162;-62
2024/02/07 04:02:57;;;;;;;7.30;3.70;;;;;;;13.62;82.66;99492.61;106672;1286;79833;-61
2024/02/07 04:05:23;;;;;;;6.30;3.70;;;;;;;13.62;82.66;99490.14;106653;1286;73194;-62
2024/02/07 04:07:50;;;;;;;5.90;3.30;;;;;;;13.62;82.61;99489.98;106630;1286;72351;-61
2024/02/07 04:10:18;;;;;;;7.90;3.80;;;;;;;13.62;82.55;99489.59;106698;1286;58275;-61
2024/02/07 05:15:41;;;;;;;5.50;2.90;;;;;;;13.58;82.43;99470.41;106426;1286;72608;-62
2024/02/07 05:18:07;;;;;;;5.50;3.20;;;;;;;13.58;82.46;99469.55;106412;1286;58726;-62
2024/02/07 05:20:33;;;;;;;7.00;3.50;;;;;;;13.58;82.52;99465.86;106668;1286;58238;-62
2024/02/07 05:22:58;;;;;;;6.00;3.10;;;;;;;13.58;82.48;99462.28;106698;1286;58264;-62
2024/02/07 05:25:24;;;;;;;7.20;3.30;;;;;;;13.58;82.47;99459.52;106672;1286;58375;-62
2024/02/07 05:27:50;;;;;;;9.40;4.10;;;;;;;13.57;82.46;99468.91;106640;1286;61876;-61
2024/02/07 05:30:16;;;;;;;5.40;3.10;;;;;;;13.58;82.49;99472.80;106636;1286;58561;-61
2024/02/07 05:32:42;;;;;;;9.50;3.40;;;;;;;13.58;82.51;99472.19;106642;1286;58260;-62
2024/02/07 05:35:08;;;;;;;7.10;3.60;;;;;;;13.59;82.48;99473.86;106594;1286;58734;-62
2024/02/07 05:37:35;;;;;;;7.20;3.10;;;;;;;13.60;82.48;99478.93;106638;1286;58280;-62
2024/02/07 05:40:01;;;;;;;6.60;3.20;;;;;;;13.59;82.45;99478.52;106663;1286;58504;-62
2024/02/07 05:42:27;;;;;;;6.10;3.00;;;;;;;13.60;82.45;99484.19;106668;1286;58234;-62
2024/02/07 05:44:52;;;;;;;5.30;3.10;;;;;;;13.60;82.49;99479.15;106667;1286;58291;-61
2024/02/07 05:47:17;;;;;;;8.20;3.90;;;;;;;13.60;82.42;99478.70;106677;1286;58302;-61
2024/02/07 05:49:43;;;;;;;5.80;3.20;;;;;;;13.61;82.41;99479.59;106708;1286;58214;-62
2024/02/07 05:52:10;;;;;;;5.90;3.40;;;;;;;13.62;82.45;99484.46;106699;1286;58239;-62
2024/02/07 05:54:35;;;;;;;9.30;3.60;;;;;;;13.62;82.52;99485.16;106673;1286;58181;-61
2024/02/07 05:57:00;;;;;;;7.60;3.60;;;;;;;13.62;82.60;99479.63;106655;1286;58273;-62
2024/02/07 05:59:26;;;;;;;7.70;3.10;;;;;;;13.63;82.72;99476.71;106688;1286;58760;-61
2024/02/07 06:01:51;;;;;;;8.30;3.50;;;;;;;13.64;82.81;99474.05;106657;1287;61052;-62
2024/02/07 06:04:18;;;;;;;9.00;3.70;;;;;;;13.64;82.84;99474.15;106699;1286;58257;-62
2024/02/07 06:06:45;;;;;;;7.10;3.20;;;;;;;13.66;82.78;99476.67;106677;1286;58257;-62
2024/02/07 06:09:12;;;;;;;6.80;3.40;;;;;;;13.67;82.84;99472.16;106649;1286;58169;-62
2024/02/07 06:11:41;;;;;;;7.00;3.50;;;;;;;13.67;82.76;99467.70;106680;1286;61751;-62
2024/02/07 06:14:11;;;;;;;6.30;3.20;;;;;;;13.68;82.75;99465.25;106713;1286;61286;-62
2024/02/07 06:16:37;;;;;;;8.70;3.50;;;;;;;13.69;82.65;99466.63;106430;1286;74837;-62
2024/02/07 06:19:03;;;;;;;6.80;3.40;;;;;;;13.69;82.61;99466.03;106724;1286;58264;-62
2024/02/07 06:21:29;;;;;;;4.90;2.90;;;;;;;13.70;82.57;99458.97;106670;1286;58285;-61
2024/02/07 06:23:55;;;;;;;6.30;3.40;;;;;;;13.71;82.56;99459.11;106422;1286;58373;-60
2024/02/07 06:26:20;;;;;;;5.30;3.00;;;;;;;13.71;82.53;99462.67;106652;1286;58297;-60
2024/02/07 06:28:52;;;;;;;6.70;3.70;;;;;;;13.72;82.54;99465.95;106673;1286;58271;-60
2024/02/07 06:31:21;;;;;;;7.10;3.20;;;;;;;13.72;82.49;99464.87;106653;1286;73223;-60
2024/02/07 06:33:49;;;;;;;5.80;3.00;;;;;;;13.72;82.49;99466.18;106697;1286;73309;-60
2024/02/07 06:36:14;;;;;;;8.40;3.20;;;;;;;13.73;82.68;99466.43;106658;1286;62554;-61
2024/02/07 06:38:40;;;;;;;6.30;3.30;;;;;;;13.73;82.96;99460.79;106661;1286;58225;-60
2024/02/07 06:41:05;;;;;;;7.90;3.40;;;;;;;13.73;83.21;99461.48;106689;1286;58347;-60
2024/02/07 06:43:31;;;;;;;9.60;3.50;;;;;;;13.74;83.33;99464.31;106625;1286;58288;-60
2024/02/07 06:45:57;;;;;;;6.90;3.00;;;;;;;13.74;83.45;99466.41;106562;1286;58357;-60
2024/02/07 06:48:23;;;;;;;6.40;3.20;;;;;;;13.74;83.62;99466.57;106684;1286;61140;-60
2024/02/07 06:50:50;;;;;;;6.70;3.40;;;;;;;13.74;83.62;99469.23;106715;1286;58391;-60
2024/02/07 06:53:18;;;;;;;6.40;3.10;;;;;;;13.74;83.58;99470.24;106719;1286;58369;-60
2024/02/07 06:55:44;;;;;;;7.80;3.10;;;;;;;13.74;83.64;99475.89;106420;1286;73466;-61
2024/02/07 06:58:09;;;;;;;7.00;3.40;;;;;;;13.75;83.85;99473.81;106408;1289;58339;-61
2024/02/07 07:00:35;;;;;;;8.30;3.40;;;;;;;13.74;83.83;99467.70;106705;1286;58723;-61
2024/02/07 07:03:03;;;;;;;9.60;3.30;;;;;;;13.75;84.02;99461.13;106701;1286;58350;-61
2024/02/07 07:05:29;;;;;;;9.00;3.70;;;;;;;13.75;84.09;99460.45;106698;1286;58519;-61
2024/02/07 07:07:54;;;;;;;7.60;3.20;;;;;;;13.75;84.21;99459.77;106689;1286;58236;-62
2024/02/07 07:10:20;;;;;;;5.50;3.30;;;;;;;13.76;84.31;99459.31;106651;1286;58619;-61
2024/02/07 07:12:46;;;;;;;9.30;3.60;;;;;;;13.76;84.46;99452.60;106753;1286;58369;-61
2024/02/07 07:15:14;;;;;;;7.40;3.30;;;;;;;13.76;84.68;99447.44;106525;1288;73403;-61
2024/02/07 07:17:40;;;;;;;7.60;3.40;;;;;;;13.76;84.80;99451.77;106686;1286;72347;-61
2024/02/07 07:20:06;;;;;;;7.80;3.70;;;;;;;13.78;85.10;99450.23;106695;1286;58311;-61
2024/02/07 07:22:33;;;;;;;9.30;3.50;;;;;;;13.79;85.23;99447.58;106418;1286;58815;-62
2024/02/07 07:24:58;;;;;;;7.00;3.10;;;;;;;13.81;85.38;99444.80;106735;1286;58202;-61
2024/02/07 07:27:23;;;;;;;8.40;3.50;;;;;;;13.82;85.56;99444.54;106692;1286;58284;-62
2024/02/07 07:29:49;;;;;;;6.10;2.90;;;;;;;13.83;85.64;99445.26;106705;1286;58333;-62
2024/02/07 07:32:17;;;;;;;11.00;3.60;;;;;;;13.85;85.72;99447.37;106661;1286;60230;-62
2024/02/07 07:34:43;;;;;;;7.80;3.30;;;;;;;13.87;85.72;99445.81;106695;1286;74369;-62
2024/02/07 07:37:08;;;;;;;6.40;3.30;;;;;;;13.88;85.78;99442.48;106582;1287;58656;-62
2024/02/07 07:39:34;;;;;;;10.00;3.40;;;;;;;13.90;85.87;99438.60;106549;1286;58368;-62
2024/02/07 07:42:00;;;;;;;6.60;3.40;;;;;;;13.92;85.92;99438.83;106693;1286;58214;-62
2024/02/07 07:44:26;;;;;;;8.00;3.80;;;;;;;13.92;85.98;99441.96;106722;1286;59044;-62
2024/02/07 07:46:52;;;;;;;8.90;3.40;;;;;;;13.94;85.97;99436.39;106809;1286;58350;-62
2024/02/07 07:49:18;;;;;;;6.10;3.30;;;;;;;13.95;86.16;99428.63;106682;1286;72614;-62
2024/02/07 07:51:43;;;;;;;6.40;3.30;;;;;;;13.96;86.23;99433.02;106723;1286;58549;-62
2024/02/07 07:54:10;;;;;;;8.20;3.10;;;;;;;13.97;86.13;99432.09;106689;1286;58653;-63
2024/02/07 07:56:35;;;;;;;10.80;3.10;;;;;;;13.98;86.22;99432.75;106695;1286;58182;-62
2024/02/07 07:59:01;;;;;;;6.90;3.10;;;;;;;13.99;86.26;99428.67;106702;1286;58549;-62
2024/02/07 08:01:27;;;;;;;6.00;3.10;;;;;;;14.00;86.28;99426.48;106448;1287;58265;-62
2024/02/07 08:03:54;;;;;;;9.10;3.30;;;;;;;14.00;86.21;99425.98;106664;1286;61057;-63
2024/02/07 08:06:21;;;;;;;7.90;3.30;;;;;;;14.02;86.27;99420.55;106737;1286;74541;-63
2024/02/07 08:08:46;;;;;;;5.50;3.10;;;;;;;14.04;86.30;99420.58;106363;1288;72411;-63
2024/02/07 08:11:12;;;;;;;6.60;3.10;;;;;;;14.04;86.25;99417.42;106715;1286;58297;-62
2024/02/07 08:13:40;;;;;;;5.50;3.10;;;;;;;14.05;86.06;99414.09;106686;1286;58272;-61
2024/02/07 08:16:06;;;;;;;8.30;3.20;;;;;;;14.06;86.01;99417.45;106742;1286;58292;-62
2024/02/07 08:18:33;;;;;;;7.70;3.10;;;;;;;14.07;85.89;99420.27;106710;1286;58240;-62
2024/02/07 08:20:59;;;;;;;7.80;3.20;;;;;;;14.08;85.76;99417.91;106735;1286;58824;-62
2024/02/07 08:23:25;;;;;;;7.30;3.20;;;;;;;14.09;85.77;99418.45;106695;1286;58321;-62
2024/02/07 08:25:52;;;;;;;6.30;2.50;;;;;;;14.10;85.69;99416.45;106732;1286;58246;-62
2024/02/07 08:28:18;;;;;;;7.00;2.80;;;;;;;14.11;85.55;99422.13;106749;1286;58295;-62
2024/02/07 08:30:43;;;;;;;5.30;2.60;;;;;;;14.12;85.40;99420.80;106759;1286;58183;-62
2024/02/07 08:33:09;;;;;;;5.90;3.00;;;;;;;14.12;85.38;99423.23;106705;1286;58581;-62
2024/02/07 08:35:34;;;;;;;5.00;2.40;;;;;;;14.14;85.25;99417.39;106728;1287;58279;-64
2024/02/07 08:38:00;;;;;;;6.90;2.90;;;;;;;14.13;84.84;99414.98;106532;1286;61946;-63
2024/02/07 08:40:26;;;;;;;7.60;3.00;;;;;;;14.13;84.84;99411.34;106706;1286;58383;-62
2024/02/07 08:42:51;;;;;;;11.30;3.00;;;;;;;14.13;84.42;99411.81;106721;1286;58270;-63
2024/02/07 08:45:17;;;;;;;8.30;3.30;;;;;;;14.13;83.91;99404.05;106670;1287;58487;-63
2024/02/07 08:47:45;;;;;;;8.20;3.40;;;;;;;14.13;83.67;99401.50;106694;1286;58311;-62
2024/02/07 08:50:11;;;;;;;12.90;3.00;;;;;;;14.12;83.22;99401.55;106730;1286;58282;-62
2024/02/07 08:52:37;;;;;;;9.50;3.20;;;;;;;14.12;83.02;99401.34;106744;1286;58323;-61
2024/02/07 08:55:03;;;;;;;7.20;3.30;;;;;;;14.13;82.80;99403.60;106711;1286;58487;-62
2024/02/07 08:57:28;;;;;;;7.40;3.40;;;;;;;14.13;82.52;99393.79;106378;1287;58486;-62
2024/02/07 08:59:54;;;;;;;7.80;3.40;;;;;;;14.13;82.22;99389.29;106771;1286;58672;-64
2024/02/07 09:02:19;;;;;;;7.10;3.20;;;;;;;14.13;81.84;99382.55;106331;1286;58375;-62
2024/02/07 09:04:45;;;;;;;6.40;3.10;;;;;;;14.13;81.32;99378.41;106734;1287;58656;-62
2024/02/07 09:07:11;;;;;;;9.70;3.60;;;;;;;14.12;80.83;99379.62;106749;1286;58309;-62
2024/02/07 09:09:36;;;;;;;7.30;3.30;;;;;;;14.11;80.67;99379.58;106726;1286;58615;-63
2024/02/07 09:12:02;;;;;;;5.20;2.80;;;;;;;14.11;80.57;99378.17;106617;1287;58363;-63
2024/02/07 09:14:27;;;;;;;7.50;3.20;;;;;;;14.11;80.35;99383.85;106395;1288;71461;-63
2024/02/07 09:16:53;;;;;;;8.80;2.90;;;;;;;14.12;80.15;99382.27;106578;1287;58255;-62
2024/02/07 09:19:18;;;;;;;7.70;3.00;;;;;;;14.12;79.86;99378.21;106572;1287;58289;-60
2024/02/07 09:21:46;;;;;;;7.10;3.00;;;;;;;14.12;79.64;99379.94;106510;1288;58266;-61
2024/02/07 09:24:14;;;;;;;7.00;3.00;;;;;;;14.12;79.50;99377.62;106375;1287;299710;-62
2024/02/07 09:26:39;;;;;;;7.80;3.30;;;;;;;14.12;79.22;99371.05;106622;1287;58350;-61
2024/02/07 09:29:05;;;;;;;8.40;3.10;;;;;;;14.12;79.10;99374.84;106566;1287;58525;-61
2024/02/07 09:31:30;;;;;;;8.10;3.10;;;;;;;14.12;78.93;99367.96;106578;1287;58274;-61
2024/02/07 09:33:56;;;;;;;8.80;3.10;;;;;;;14.13;78.77;99374.34;106656;1287;58644;-61
2024/02/07 09:36:21;;;;;;;10.90;3.30;;;;;;;14.14;78.60;99372.67;106309;1287;72433;-61
2024/02/07 09:38:47;;;;;;;7.00;3.10;;;;;;;14.14;78.68;99371.52;106577;1287;58300;-62
2024/02/07 09:41:15;;;;;;;7.50;3.60;;;;;;;14.15;78.58;99370.86;106582;1287;58200;-61
2024/02/07 09:43:41;;;;;;;9.20;3.20;;;;;;;14.16;78.53;99361.78;106602;1287;58239;-62
2024/02/07 09:46:09;;;;;;;5.60;2.70;;;;;;;14.17;78.37;99356.94;106631;1287;58342;-62
2024/02/07 09:48:36;;;;;;;7.90;3.00;;;;;;;14.17;78.47;99353.14;106599;1286;75508;-62
2024/02/07 09:51:02;;;;;;;7.40;3.30;;;;;;;14.17;78.53;99348.36;106446;1287;72251;-62
2024/02/07 09:53:30;;;;;;;8.70;3.00;;;;;;;14.18;78.54;99341.43;106453;1286;58238;-64
2024/02/07 09:55:56;;;;;;;8.80;3.50;;;;;;;14.18;78.52;99335.40;106203;1288;60057;-62
2024/02/07 09:58:22;;;;;;;8.50;2.90;;;;;;;14.18;78.69;99332.48;106505;1287;58662;-63
2024/02/07 10:00:52;;;;;;;6.40;2.80;;;;;;;14.19;78.60;99332.12;106465;1287;58152;-63
2024/02/07 10:03:23;;;;;;;7.50;2.70;;;;;;;14.19;78.31;99321.29;106583;1287;73381;-62
2024/02/07 10:05:55;;;;;;;6.00;3.00;;;;;;;14.19;78.24;99321.21;106577;1286;62642;-62
2024/02/07 10:08:21;;;;;;;8.20;3.10;;;;;;;14.19;78.13;99316.18;106499;1286;60261;-62
2024/02/07 10:10:52;;;;;;;5.90;2.70;;;;;;;14.19;78.02;99316.82;106570;1286;58247;-63
2024/02/07 10:13:21;;;;;;;9.20;2.90;;;;;;;14.19;77.92;99302.02;106780;1286;73438;-62
2024/02/07 10:15:48;;;;;;;12.90;3.40;;;;;;;14.20;77.89;99306.23;106691;1286;73307;-62
2024/02/07 10:18:13;;;;;;;6.50;2.90;;;;;;;14.20;77.82;99308.66;106733;1286;58466;-62
2024/02/07 10:20:50;;;;;;;8.00;3.00;;;;;;;14.20;77.68;99307.58;106778;1286;58237;-62
2024/02/07 10:23:15;;;;;;;9.70;2.60;;;;;;;14.21;77.69;99309.69;106716;1287;74160;-64
2024/02/07 10:25:51;;;;;;;5.10;2.80;;;;;;;14.21;77.68;99310.42;106724;1286;58729;-63
2024/02/07 10:28:17;;;;;;;9.30;3.50;;;;;;;14.23;77.71;99311.40;106712;1286;73414;-65
2024/02/07 10:30:43;;;;;;;9.90;3.00;;;;;;;14.24;77.57;99309.38;106756;1286;58226;-64
2024/02/07 10:33:08;;;;;;;8.30;3.40;;;;;;;14.24;77.49;99304.91;106717;1286;59187;-66
2024/02/07 10:35:34;;;;;;;10.30;3.50;;;;;;;14.24;77.35;99299.17;106763;1286;58244;-68
2024/02/07 10:37:59;;;;;;;7.00;2.90;;;;;;;14.24;77.30;99295.98;106338;1286;58401;-66
2024/02/07 10:40:29;;;;;;;8.40;3.40;;;;;;;14.23;77.11;99296.33;106739;1286;58189;-64
2024/02/07 10:42:56;;;;;;;14.50;3.90;;;;;;;14.24;77.09;99291.11;106710;1286;60816;-64
2024/02/07 10:45:22;;;;;;;9.20;3.40;;;;;;;14.24;77.07;99290.66;106516;1286;73709;-66
2024/02/07 10:47:48;;;;;;;12.20;3.40;;;;;;;14.25;76.88;99292.31;106692;1286;58202;-64
2024/02/07 10:50:16;;;;;;;12.60;3.50;;;;;;;14.25;77.03;99289.23;106731;1286;58367;-66
2024/02/07 10:52:43;;;;;;;8.10;3.70;;;;;;;14.26;77.23;99289.09;106358;1288;60893;-63
2024/02/07 10:55:12;;;;;;;16.50;4.00;;;;;;;14.27;76.85;99287.83;106771;1286;61160;-63
2024/02/07 10:57:39;;;;;;;10.20;3.60;;;;;;;14.27;76.78;99287.23;106693;1286;73582;-63
2024/02/07 11:00:06;;;;;;;13.50;4.00;;;;;;;14.28;76.76;99286.33;106747;1286;74343;-63
2024/02/07 11:02:35;;;;;;;13.40;3.20;;;;;;;14.29;76.74;99291.48;106319;1291;73458;-62
2024/02/07 11:05:01;;;;;;;7.80;2.80;;;;;;;14.29;76.61;99295.02;106695;1286;62511;-63
2024/02/07 11:07:27;;;;;;;8.70;3.40;;;;;;;14.30;76.63;99296.67;106742;1286;58277;-63
2024/02/07 11:09:54;;;;;;;8.00;3.30;;;;;;;14.30;76.59;99293.79;106752;1286;58484;-63
2024/02/07 11:12:20;;;;;;;7.20;3.20;;;;;;;14.31;76.49;99298.57;106393;1286;58340;-63
2024/02/07 11:14:47;;;;;;;9.60;3.40;;;;;;;14.32;76.49;99294.27;106352;1288;58479;-64
2024/02/07 11:17:14;;;;;;;7.00;3.20;;;;;;;14.33;76.30;99293.92;106509;1286;58486;-64
2024/02/07 11:19:40;;;;;;;9.60;3.20;;;;;;;14.34;76.09;99289.48;106640;1288;58153;-63
2024/02/07 11:22:15;;;;;;;10.70;3.60;;;;;;;14.35;76.17;99281.02;106725;1287;58715;-64
2024/02/07 11:24:42;;;;;;;10.90;3.10;;;;;;;14.36;76.11;99269.02;106473;1286;73396;-65
2024/02/07 11:27:10;;;;;;;7.00;3.00;;;;;;;14.37;76.04;99269.95;106666;1286;72918;-64
2024/02/07 11:29:36;;;;;;;5.20;2.80;;;;;;;14.38;76.10;99272.91;106354;1286;60468;-63
2024/02/07 11:32:03;;;;;;;11.40;2.80;;;;;;;14.39;76.00;99274.73;106724;1286;58527;-65
2024/02/07 11:34:31;;;;;;;10.30;2.90;;;;;;;14.40;75.86;99271.29;106716;1286;74656;-63
2024/02/07 11:36:57;;;;;;;7.00;3.00;;;;;;;14.40;75.70;99276.64;106726;1286;74739;-64
2024/02/07 11:39:22;;;;;;;5.60;2.40;;;;;;;14.42;75.63;99268.36;106729;1286;58288;-63
2024/02/07 11:41:49;;;;;;;11.10;3.10;;;;;;;14.41;75.51;99265.12;106704;1286;58683;-65
2024/02/07 11:44:15;;;;;;;6.00;2.50;;;;;;;14.42;75.49;99260.18;106733;1288;58876;-63
2024/02/07 11:46:50;;;;;;;8.60;2.60;;;;;;;14.42;75.35;99257.94;106705;1286;58236;-63
2024/02/07 11:49:20;;;;;;;9.10;3.20;;;;;;;14.42;74.92;99258.16;106716;1286;73333;-63
2024/02/07 11:51:46;;;;;;;7.10;2.70;;;;;;;14.42;74.81;99253.60;106683;1287;73367;-62
2024/02/07 11:54:19;;;;;;;5.50;2.30;;;;;;;14.43;74.63;99254.94;106737;1286;58437;-63
2024/02/07 11:56:55;;;;;;;7.30;2.70;;;;;;;14.43;74.44;99252.64;106764;1286;59827;-64
2024/02/07 11:59:21;;;;;;;6.00;2.20;;;;;;;14.43;74.38;99251.33;106721;1286;73497;-63
2024/02/07 12:01:47;;;;;;;6.00;2.20;;;;;;;14.43;74.32;99257.52;106691;1288;58676;-63
2024/02/07 12:04:16;;;;;;;4.40;2.10;;;;;;;14.43;74.20;99253.11;106744;1286;58206;-63
2024/02/07 12:06:43;;;;;;;6.30;2.20;;;;;;;14.43;74.09;99251.01;106722;1286;62898;-64
2024/02/07 12:09:09;;;;;;;5.40;2.50;;;;;;;14.44;74.05;99252.19;106534;1288;60048;-63
2024/02/07 12:11:34;;;;;;;9.30;2.40;;;;;;;14.44;74.02;99249.96;106699;1286;58251;-62
2024/02/07 12:14:00;;;;;;;9.30;2.40;;;;;;;14.45;74.03;99249.23;106747;1286;58297;-62
2024/02/07 12:16:25;;;;;;;6.70;2.10;;;;;;;14.47;74.38;99250.12;106692;1286;58610;-62
2024/02/07 12:18:51;;;;;;;11.00;2.60;;;;;;;14.48;74.46;99249.94;106740;1286;58251;-62
2024/02/07 12:21:18;;;;;;;5.70;2.10;;;;;;;14.49;74.42;99250.18;106725;1287;73732;-63
2024/02/07 12:23:45;;;;;;;7.70;2.20;;;;;;;14.48;74.61;99247.60;106407;1289;75486;-63
2024/02/07 12:26:11;;;;;;;6.30;2.40;;;;;;;14.48;74.61;99246.23;106256;1289;71898;-64